sensor_id;sensor_type;location;lat;lon;timestamp;temperature;humidity
12872;DHT22;6504;53.766;9.626;2024-03-08T00:00:00;1.90;99.90
12872;DHT22;6504;53.766;9.626;2024-03-08T00:03:13;1.80;99.90
12872;DHT22;6504;53.766;9.626;2024-03-08T00:06:23;1.80;99.90
12872;DHT22;6504;53.766;9.626;2024-03-08T00:09:53;1.80;99.90
12872;DHT22;6504;53.766;9.626;2024-03-08T00:13:14;1.70;99.90
12872;DHT22;6504;53.766;9.626;2024-03-08T00:23:16;1.60;99.90
12872;DHT22;6504;53.766;9.626;2024-03-08T00:26:13;1.60;99.90
12872;DHT22;6504;53.766;9.626;2024-03-08T00:29:31;1.60;99.90
12872;DHT22;6504;53.766;9.626;2024-03-08T00:32:35;1.60;99.90
12872;DHT22;6504;53.766;9.626;2024-03-08T00:35:59;1.50;99.90
12872;DHT22;6504;53.766;9.626;2024-03-08T00:56:39;1.40;99.90
12872;DHT22;6504;53.766;9.626;2024-03-08T00:59:34;1.40;99.90
12872;DHT22;6504;53.766;9.626;2024-03-08T01:06:09;1.40;99.90
12872;DHT22;6504;53.766;9.626;2024-03-08T01:09:06;1.30;99.90
12872;DHT22;6504;53.766;9.626;2024-03-08T01:12:12;1.30;99.90
12872;DHT22;6504;53.766;9.626;2024-03-08T01:15:00;1.30;99.90
12872;DHT22;6504;53.766;9.626;2024-03-08T01:18:04;1.30;99.90
12872;DHT22;6504;53.766;9.626;2024-03-08T01:21:04;1.30;99.90
12872;DHT22;6504;53.766;9.626;2024-03-08T01:24:01;1.30;99.90
12872;DHT22;6504;53.766;9.626;2024-03-08T01:34:21;1.30;99.90
12872;DHT22;6504;53.766;9.626;2024-03-08T01:37:18;1.30;99.90
12872;DHT22;6504;53.766;9.626;2024-03-08T01:40:20;1.30;99.90
12872;DHT22;6504;53.766;9.626;2024-03-08T01:43:25;1.30;99.90
12872;DHT22;6504;53.766;9.626;2024-03-08T01:46:29;1.30;99.90
12872;DHT22;6504;53.766;9.626;2024-03-08T01:53:18;1.20;99.90
12872;DHT22;6504;53.766;9.626;2024-03-08T01:55:57;1.20;99.90
12872;DHT22;6504;53.766;9.626;2024-03-08T01:58:48;1.20;99.90
12872;DHT22;6504;53.766;9.626;2024-03-08T02:01:44;1.20;99.90
12872;DHT22;6504;53.766;9.626;2024-03-08T02:04:35;1.20;99.90
12872;DHT22;6504;53.766;9.626;2024-03-08T02:08:01;1.10;99.90
12872;DHT22;6504;53.766;9.626;2024-03-08T02:11:01;1.10;99.90
12872;DHT22;6504;53.766;9.626;2024-03-08T02:14:15;1.00;99.90
12872;DHT22;6504;53.766;9.626;2024-03-08T02:16:55;1.00;99.90
12872;DHT22;6504;53.766;9.626;2024-03-08T02:19:58;1.00;99.90
12872;DHT22;6504;53.766;9.626;2024-03-08T02:22:56;1.00;99.90
12872;DHT22;6504;53.766;9.626;2024-03-08T03:23:41;0.40;99.90
12872;DHT22;6504;53.766;9.626;2024-03-08T03:26:54;0.40;99.90
12872;DHT22;6504;53.766;9.626;2024-03-08T03:30:38;0.30;99.90
12872;DHT22;6504;53.766;9.626;2024-03-08T03:34:02;0.30;99.90
12872;DHT22;6504;53.766;9.626;2024-03-08T03:41:26;0.30;99.90
12872;DHT22;6504;53.766;9.626;2024-03-08T03:56:11;0.20;99.90
12872;DHT22;6504;53.766;9.626;2024-03-08T04:02:56;0.20;99.90
12872;DHT22;6504;53.766;9.626;2024-03-08T04:06:25;0.10;99.90
12872;DHT22;6504;53.766;9.626;2024-03-08T04:13:31;0.10;99.90
12872;DHT22;6504;53.766;9.626;2024-03-08T04:20:34;0.00;99.90
12872;DHT22;6504;53.766;9.626;2024-03-08T04:23:53;0.00;99.90
12872;DHT22;6504;53.766;9.626;2024-03-08T04:27:30;0.00;99.90
12872;DHT22;6504;53.766;9.626;2024-03-08T04:42:47;0.00;99.90
12872;DHT22;6504;53.766;9.626;2024-03-08T04:45:46;-0.10;99.90
12872;DHT22;6504;53.766;9.626;2024-03-08T04:57:10;-0.10;99.90
12872;DHT22;6504;53.766;9.626;2024-03-08T05:26:49;-0.10;99.90
12872;DHT22;6504;53.766;9.626;2024-03-08T05:29:47;-0.10;99.90
12872;DHT22;6504;53.766;9.626;2024-03-08T05:33:10;-0.10;99.90
12872;DHT22;6504;53.766;9.626;2024-03-08T05:36:32;-0.10;99.90
12872;DHT22;6504;53.766;9.626;2024-03-08T05:39:42;-0.20;99.90
12872;DHT22;6504;53.766;9.626;2024-03-08T05:47:09;-0.20;99.90
12872;DHT22;6504;53.766;9.626;2024-03-08T05:54:16;-0.20;99.90
12872;DHT22;6504;53.766;9.626;2024-03-08T05:57:37;-0.20;99.90
12872;DHT22;6504;53.766;9.626;2024-03-08T06:01:31;-0.20;99.90
12872;DHT22;6504;53.766;9.626;2024-03-08T06:08:32;-0.30;99.90
12872;DHT22;6504;53.766;9.626;2024-03-08T06:11:45;-0.30;99.90
12872;DHT22;6504;53.766;9.626;2024-03-08T06:16:03;-0.30;99.90
12872;DHT22;6504;53.766;9.626;2024-03-08T06:19:27;-0.30;99.90
12872;DHT22;6504;53.766;9.626;2024-03-08T06:23:03;-0.30;99.90
12872;DHT22;6504;53.766;9.626;2024-03-08T06:37:19;-0.40;99.90
12872;DHT22;6504;53.766;9.626;2024-03-08T06:44:55;-0.40;99.90
12872;DHT22;6504;53.766;9.626;2024-03-08T06:59:01;-0.50;99.90
12872;DHT22;6504;53.766;9.626;2024-03-08T07:13:16;-0.40;99.90
12872;DHT22;6504;53.766;9.626;2024-03-08T07:45:52;0.20;99.90
12872;DHT22;6504;53.766;9.626;2024-03-08T07:49:16;0.30;99.90
12872;DHT22;6504;53.766;9.626;2024-03-08T07:53:17;0.30;99.90
12872;DHT22;6504;53.766;9.626;2024-03-08T07:57:14;0.40;99.90
12872;DHT22;6504;53.766;9.626;2024-03-08T08:00:03;0.50;99.90
12872;DHT22;6504;53.766;9.626;2024-03-08T08:03:58;0.60;99.90
12872;DHT22;6504;53.766;9.626;2024-03-08T08:07:44;0.60;99.90
12872;DHT22;6504;53.766;9.626;2024-03-08T08:13:56;0.80;99.90
12872;DHT22;6504;53.766;9.626;2024-03-08T08:16:45;0.80;99.90
12872;DHT22;6504;53.766;9.626;2024-03-08T08:20:11;0.90;99.90
12872;DHT22;6504;53.766;9.626;2024-03-08T08:26:17;1.00;99.90
12872;DHT22;6504;53.766;9.626;2024-03-08T08:28:48;1.20;99.90
12872;DHT22;6504;53.766;9.626;2024-03-08T08:31:20;1.30;99.90
12872;DHT22;6504;53.766;9.626;2024-03-08T08:33:48;1.30;99.90
12872;DHT22;6504;53.766;9.626;2024-03-08T08:36:17;1.50;99.90
12872;DHT22;6504;53.766;9.626;2024-03-08T08:38:46;1.50;99.90
12872;DHT22;6504;53.766;9.626;2024-03-08T08:41:14;1.60;99.90
12872;DHT22;6504;53.766;9.626;2024-03-08T08:43:43;1.70;99.90
12872;DHT22;6504;53.766;9.626;2024-03-08T08:46:28;1.70;99.90
12872;DHT22;6504;53.766;9.626;2024-03-08T08:48:56;1.80;99.90
12872;DHT22;6504;53.766;9.626;2024-03-08T08:51:27;1.80;99.90
12872;DHT22;6504;53.766;9.626;2024-03-08T08:53:55;1.90;99.90
12872;DHT22;6504;53.766;9.626;2024-03-08T08:56:24;1.90;99.90
12872;DHT22;6504;53.766;9.626;2024-03-08T08:58:53;2.00;99.90
12872;DHT22;6504;53.766;9.626;2024-03-08T09:01:21;2.00;99.90
12872;DHT22;6504;53.766;9.626;2024-03-08T09:03:49;2.10;99.90
12872;DHT22;6504;53.766;9.626;2024-03-08T09:06:18;2.20;99.90
12872;DHT22;6504;53.766;9.626;2024-03-08T09:08:48;2.20;99.90
12872;DHT22;6504;53.766;9.626;2024-03-08T09:11:16;2.20;99.90
12872;DHT22;6504;53.766;9.626;2024-03-08T09:13:44;2.30;99.90
12872;DHT22;6504;53.766;9.626;2024-03-08T09:16:13;2.30;99.90
12872;DHT22;6504;53.766;9.626;2024-03-08T09:18:41;2.40;99.90
12872;DHT22;6504;53.766;9.626;2024-03-08T09:21:09;2.50;99.90
12872;DHT22;6504;53.766;9.626;2024-03-08T09:23:38;2.60;99.90
12872;DHT22;6504;53.766;9.626;2024-03-08T09:26:08;2.60;99.90
12872;DHT22;6504;53.766;9.626;2024-03-08T09:28:48;2.60;99.90
12872;DHT22;6504;53.766;9.626;2024-03-08T09:31:16;2.70;99.90
12872;DHT22;6504;53.766;9.626;2024-03-08T09:33:44;2.70;99.90
12872;DHT22;6504;53.766;9.626;2024-03-08T09:36:13;2.80;99.90
12872;DHT22;6504;53.766;9.626;2024-03-08T09:38:41;2.90;99.90
12872;DHT22;6504;53.766;9.626;2024-03-08T09:41:11;2.90;99.90
12872;DHT22;6504;53.766;9.626;2024-03-08T09:43:39;3.00;99.90
12872;DHT22;6504;53.766;9.626;2024-03-08T09:46:07;3.10;99.90
12872;DHT22;6504;53.766;9.626;2024-03-08T09:48:35;3.20;99.90
12872;DHT22;6504;53.766;9.626;2024-03-08T09:51:05;3.20;99.90
12872;DHT22;6504;53.766;9.626;2024-03-08T09:53:34;3.20;99.90
12872;DHT22;6504;53.766;9.626;2024-03-08T09:56:04;3.30;99.90
12872;DHT22;6504;53.766;9.626;2024-03-08T09:58:33;3.40;99.90
12872;DHT22;6504;53.766;9.626;2024-03-08T10:01:09;3.40;99.90
12872;DHT22;6504;53.766;9.626;2024-03-08T10:03:38;3.50;99.90
12872;DHT22;6504;53.766;9.626;2024-03-08T10:06:07;3.50;99.90
12872;DHT22;6504;53.766;9.626;2024-03-08T10:08:37;3.60;99.90
12872;DHT22;6504;53.766;9.626;2024-03-08T10:11:07;3.60;99.90
12872;DHT22;6504;53.766;9.626;2024-03-08T10:13:37;3.70;99.90
12872;DHT22;6504;53.766;9.626;2024-03-08T10:16:08;3.80;99.90
12872;DHT22;6504;53.766;9.626;2024-03-08T10:18:36;3.90;99.90
12872;DHT22;6504;53.766;9.626;2024-03-08T10:21:05;3.90;99.90
12872;DHT22;6504;53.766;9.626;2024-03-08T10:23:34;4.00;99.90
12872;DHT22;6504;53.766;9.626;2024-03-08T10:26:10;4.10;99.90
12872;DHT22;6504;53.766;9.626;2024-03-08T10:28:45;4.20;99.90
12872;DHT22;6504;53.766;9.626;2024-03-08T10:31:15;4.20;99.90
12872;DHT22;6504;53.766;9.626;2024-03-08T10:33:45;4.30;99.90
12872;DHT22;6504;53.766;9.626;2024-03-08T10:36:14;4.30;99.90
12872;DHT22;6504;53.766;9.626;2024-03-08T10:38:43;4.40;99.90
12872;DHT22;6504;53.766;9.626;2024-03-08T10:41:15;4.40;99.90
12872;DHT22;6504;53.766;9.626;2024-03-08T10:43:57;4.50;99.90
12872;DHT22;6504;53.766;9.626;2024-03-08T10:46:39;4.60;99.90
12872;DHT22;6504;53.766;9.626;2024-03-08T10:49:17;4.60;99.90
12872;DHT22;6504;53.766;9.626;2024-03-08T10:51:45;4.80;99.90
12872;DHT22;6504;53.766;9.626;2024-03-08T10:54:14;4.80;99.90
12872;DHT22;6504;53.766;9.626;2024-03-08T10:56:46;4.80;99.90
12872;DHT22;6504;53.766;9.626;2024-03-08T10:59:18;4.90;99.90
12872;DHT22;6504;53.766;9.626;2024-03-08T11:01:47;4.90;99.90
12872;DHT22;6504;53.766;9.626;2024-03-08T11:04:15;4.90;99.90
12872;DHT22;6504;53.766;9.626;2024-03-08T11:06:46;5.00;99.90
12872;DHT22;6504;53.766;9.626;2024-03-08T11:09:30;5.00;99.90
12872;DHT22;6504;53.766;9.626;2024-03-08T11:12:24;5.20;99.90
12872;DHT22;6504;53.766;9.626;2024-03-08T11:14:54;5.30;99.90
12872;DHT22;6504;53.766;9.626;2024-03-08T11:17:44;5.30;99.90
12872;DHT22;6504;53.766;9.626;2024-03-08T11:20:14;5.40;99.90
12872;DHT22;6504;53.766;9.626;2024-03-08T11:22:48;5.50;99.90
12872;DHT22;6504;53.766;9.626;2024-03-08T11:25:35;5.50;99.90
12872;DHT22;6504;53.766;9.626;2024-03-08T11:28:11;5.50;99.90
12872;DHT22;6504;53.766;9.626;2024-03-08T11:30:46;5.60;99.90
12872;DHT22;6504;53.766;9.626;2024-03-08T11:33:15;5.70;99.90
12872;DHT22;6504;53.766;9.626;2024-03-08T11:35:44;5.70;94.10
12872;DHT22;6504;53.766;9.626;2024-03-08T11:38:13;5.70;89.10
12872;DHT22;6504;53.766;9.626;2024-03-08T11:40:46;5.80;97.70
12872;DHT22;6504;53.766;9.626;2024-03-08T11:43:16;5.80;72.60
12872;DHT22;6504;53.766;9.626;2024-03-08T11:45:46;5.80;66.10
12872;DHT22;6504;53.766;9.626;2024-03-08T11:48:14;5.90;86.40
12872;DHT22;6504;53.766;9.626;2024-03-08T11:50:42;5.90;91.90
12872;DHT22;6504;53.766;9.626;2024-03-08T11:53:11;6.00;87.30
12872;DHT22;6504;53.766;9.626;2024-03-08T11:55:40;6.00;89.50
12872;DHT22;6504;53.766;9.626;2024-03-08T11:58:09;6.10;91.30
12872;DHT22;6504;53.766;9.626;2024-03-08T12:00:40;6.20;91.00
12872;DHT22;6504;53.766;9.626;2024-03-08T12:03:09;6.20;91.10
12872;DHT22;6504;53.766;9.626;2024-03-08T12:05:38;6.30;97.40
12872;DHT22;6504;53.766;9.626;2024-03-08T12:08:05;6.30;84.10
12872;DHT22;6504;53.766;9.626;2024-03-08T12:10:36;6.30;81.90
12872;DHT22;6504;53.766;9.626;2024-03-08T12:13:04;6.50;51.80
12872;DHT22;6504;53.766;9.626;2024-03-08T12:15:39;6.50;74.70
12872;DHT22;6504;53.766;9.626;2024-03-08T12:18:09;6.50;91.70
12872;DHT22;6504;53.766;9.626;2024-03-08T12:20:39;6.60;91.40
12872;DHT22;6504;53.766;9.626;2024-03-08T12:23:14;6.60;88.40
12872;DHT22;6504;53.766;9.626;2024-03-08T12:25:43;6.70;84.80
12872;DHT22;6504;53.766;9.626;2024-03-08T12:28:12;6.80;90.40
12872;DHT22;6504;53.766;9.626;2024-03-08T12:30:47;6.90;67.50
12872;DHT22;6504;53.766;9.626;2024-03-08T12:33:17;6.90;1.00
12872;DHT22;6504;53.766;9.626;2024-03-08T12:35:51;7.00;1.00
12872;DHT22;6504;53.766;9.626;2024-03-08T12:38:22;7.00;1.00
12872;DHT22;6504;53.766;9.626;2024-03-08T12:40:58;7.10;1.00
12872;DHT22;6504;53.766;9.626;2024-03-08T12:43:28;7.20;1.00
12872;DHT22;6504;53.766;9.626;2024-03-08T12:45:58;7.30;6.90
12872;DHT22;6504;53.766;9.626;2024-03-08T12:48:27;7.30;12.70
12872;DHT22;6504;53.766;9.626;2024-03-08T12:50:55;7.30;1.00
12872;DHT22;6504;53.766;9.626;2024-03-08T12:53:23;7.40;4.80
12872;DHT22;6504;53.766;9.626;2024-03-08T12:55:55;7.40;1.00
12872;DHT22;6504;53.766;9.626;2024-03-08T12:58:24;7.50;1.00
12872;DHT22;6504;53.766;9.626;2024-03-08T13:00:52;7.50;1.00
12872;DHT22;6504;53.766;9.626;2024-03-08T13:03:21;7.60;1.00
12872;DHT22;6504;53.766;9.626;2024-03-08T13:05:51;7.60;5.80
12872;DHT22;6504;53.766;9.626;2024-03-08T13:08:19;7.60;5.70
12872;DHT22;6504;53.766;9.626;2024-03-08T13:10:48;7.70;5.40
12872;DHT22;6504;53.766;9.626;2024-03-08T13:13:18;7.70;1.00
12872;DHT22;6504;53.766;9.626;2024-03-08T13:15:46;7.70;1.00
12872;DHT22;6504;53.766;9.626;2024-03-08T13:18:15;7.80;1.00
12872;DHT22;6504;53.766;9.626;2024-03-08T13:20:44;7.80;1.00
12872;DHT22;6504;53.766;9.626;2024-03-08T13:23:19;7.90;1.00
12872;DHT22;6504;53.766;9.626;2024-03-08T13:25:48;7.80;1.00
12872;DHT22;6504;53.766;9.626;2024-03-08T13:28:16;7.80;1.00
12872;DHT22;6504;53.766;9.626;2024-03-08T13:30:49;7.90;1.00
12872;DHT22;6504;53.766;9.626;2024-03-08T13:33:24;8.00;1.00
12872;DHT22;6504;53.766;9.626;2024-03-08T13:35:52;8.10;1.00
12872;DHT22;6504;53.766;9.626;2024-03-08T13:38:21;8.20;1.00
12872;DHT22;6504;53.766;9.626;2024-03-08T13:40:49;8.20;1.00
12872;DHT22;6504;53.766;9.626;2024-03-08T13:43:18;8.20;1.00
12872;DHT22;6504;53.766;9.626;2024-03-08T13:45:47;8.10;1.00
12872;DHT22;6504;53.766;9.626;2024-03-08T13:48:16;8.10;1.00
12872;DHT22;6504;53.766;9.626;2024-03-08T13:50:44;8.10;1.00
12872;DHT22;6504;53.766;9.626;2024-03-08T13:53:12;8.10;1.00
12872;DHT22;6504;53.766;9.626;2024-03-08T13:55:43;8.20;1.00
12872;DHT22;6504;53.766;9.626;2024-03-08T13:58:11;8.20;1.00
12872;DHT22;6504;53.766;9.626;2024-03-08T14:00:40;8.20;1.00
12872;DHT22;6504;53.766;9.626;2024-03-08T14:03:13;8.20;1.00
12872;DHT22;6504;53.766;9.626;2024-03-08T14:05:41;8.20;1.00
12872;DHT22;6504;53.766;9.626;2024-03-08T14:08:09;8.20;1.00
12872;DHT22;6504;53.766;9.626;2024-03-08T14:10:38;8.20;1.00
12872;DHT22;6504;53.766;9.626;2024-03-08T14:13:08;8.20;1.00
12872;DHT22;6504;53.766;9.626;2024-03-08T14:15:38;8.20;1.00
12872;DHT22;6504;53.766;9.626;2024-03-08T14:18:09;8.30;1.00
12872;DHT22;6504;53.766;9.626;2024-03-08T14:20:39;8.30;1.00
12872;DHT22;6504;53.766;9.626;2024-03-08T14:23:08;8.30;1.00
12872;DHT22;6504;53.766;9.626;2024-03-08T14:25:37;8.30;1.00
12872;DHT22;6504;53.766;9.626;2024-03-08T14:28:04;8.40;1.00
12872;DHT22;6504;53.766;9.626;2024-03-08T14:30:35;8.40;1.00
12872;DHT22;6504;53.766;9.626;2024-03-08T14:33:05;8.40;1.00
12872;DHT22;6504;53.766;9.626;2024-03-08T14:35:36;8.50;1.00
12872;DHT22;6504;53.766;9.626;2024-03-08T14:38:04;8.50;1.00
12872;DHT22;6504;53.766;9.626;2024-03-08T14:40:35;8.40;1.00
12872;DHT22;6504;53.766;9.626;2024-03-08T14:43:04;8.40;1.00
12872;DHT22;6504;53.766;9.626;2024-03-08T14:45:32;8.30;1.00
12872;DHT22;6504;53.766;9.626;2024-03-08T14:48:03;8.30;1.00
12872;DHT22;6504;53.766;9.626;2024-03-08T14:50:32;8.20;1.00
12872;DHT22;6504;53.766;9.626;2024-03-08T14:53:00;8.20;1.00
12872;DHT22;6504;53.766;9.626;2024-03-08T14:55:33;8.10;1.00
12872;DHT22;6504;53.766;9.626;2024-03-08T14:58:02;8.10;1.00
12872;DHT22;6504;53.766;9.626;2024-03-08T15:00:31;8.10;1.00
12872;DHT22;6504;53.766;9.626;2024-03-08T15:03:03;8.00;1.00
12872;DHT22;6504;53.766;9.626;2024-03-08T15:05:33;8.00;1.00
12872;DHT22;6504;53.766;9.626;2024-03-08T15:08:06;8.00;1.00
12872;DHT22;6504;53.766;9.626;2024-03-08T15:10:38;8.10;1.00
12872;DHT22;6504;53.766;9.626;2024-03-08T15:13:09;8.10;1.00
12872;DHT22;6504;53.766;9.626;2024-03-08T15:15:48;8.10;1.00
12872;DHT22;6504;53.766;9.626;2024-03-08T15:18:23;8.10;1.00
12872;DHT22;6504;53.766;9.626;2024-03-08T15:21:03;8.00;1.00
12872;DHT22;6504;53.766;9.626;2024-03-08T15:23:34;8.00;1.00
12872;DHT22;6504;53.766;9.626;2024-03-08T15:26:03;8.00;1.00
12872;DHT22;6504;53.766;9.626;2024-03-08T15:28:34;8.00;1.00
12872;DHT22;6504;53.766;9.626;2024-03-08T15:31:04;8.00;1.00
12872;DHT22;6504;53.766;9.626;2024-03-08T15:33:38;8.00;1.00
12872;DHT22;6504;53.766;9.626;2024-03-08T15:36:12;8.00;1.00
12872;DHT22;6504;53.766;9.626;2024-03-08T15:38:52;7.90;1.00
12872;DHT22;6504;53.766;9.626;2024-03-08T15:42:01;7.80;1.00
12872;DHT22;6504;53.766;9.626;2024-03-08T16:34:55;6.50;99.90
12872;DHT22;6504;53.766;9.626;2024-03-08T16:37:46;6.40;99.90
12872;DHT22;6504;53.766;9.626;2024-03-08T16:44:34;6.30;99.90
12872;DHT22;6504;53.766;9.626;2024-03-08T16:47:38;6.10;99.90
12872;DHT22;6504;53.766;9.626;2024-03-08T16:50:29;6.10;99.90
12872;DHT22;6504;53.766;9.626;2024-03-08T16:52:58;6.00;99.90
12872;DHT22;6504;53.766;9.626;2024-03-08T16:55:27;6.00;99.90
12872;DHT22;6504;53.766;9.626;2024-03-08T16:57:57;5.90;99.90
12872;DHT22;6504;53.766;9.626;2024-03-08T17:00:26;5.80;99.90
12872;DHT22;6504;53.766;9.626;2024-03-08T17:02:55;5.80;99.90
12872;DHT22;6504;53.766;9.626;2024-03-08T17:05:25;5.80;99.90
12872;DHT22;6504;53.766;9.626;2024-03-08T17:07:58;5.70;99.90
12872;DHT22;6504;53.766;9.626;2024-03-08T17:10:29;5.70;99.90
12872;DHT22;6504;53.766;9.626;2024-03-08T18:25:08;4.20;99.90
12872;DHT22;6504;53.766;9.626;2024-03-08T18:32:12;4.10;99.90
12872;DHT22;6504;53.766;9.626;2024-03-08T19:05:02;3.70;99.90
12872;DHT22;6504;53.766;9.626;2024-03-08T19:08:17;3.60;99.90
12872;DHT22;6504;53.766;9.626;2024-03-08T19:11:16;3.60;99.90
12872;DHT22;6504;53.766;9.626;2024-03-08T19:14:38;3.50;99.90
12872;DHT22;6504;53.766;9.626;2024-03-08T19:17:30;3.50;99.90
12872;DHT22;6504;53.766;9.626;2024-03-08T19:52:09;3.20;99.90
12872;DHT22;6504;53.766;9.626;2024-03-08T19:55:01;3.20;99.90
12872;DHT22;6504;53.766;9.626;2024-03-08T19:57:30;3.20;99.90
12872;DHT22;6504;53.766;9.626;2024-03-08T19:59:59;3.20;99.90
12872;DHT22;6504;53.766;9.626;2024-03-08T20:02:27;3.20;99.90
12872;DHT22;6504;53.766;9.626;2024-03-08T20:04:55;3.20;99.90
12872;DHT22;6504;53.766;9.626;2024-03-08T20:07:25;3.20;99.90
12872;DHT22;6504;53.766;9.626;2024-03-08T20:09:53;3.20;99.90
12872;DHT22;6504;53.766;9.626;2024-03-08T20:12:22;3.20;99.90
12872;DHT22;6504;53.766;9.626;2024-03-08T20:14:51;3.20;99.90
12872;DHT22;6504;53.766;9.626;2024-03-08T20:17:19;3.20;99.90
12872;DHT22;6504;53.766;9.626;2024-03-08T20:19:49;3.20;99.90
12872;DHT22;6504;53.766;9.626;2024-03-08T20:22:17;3.30;99.90
12872;DHT22;6504;53.766;9.626;2024-03-08T20:24:47;3.20;99.90
12872;DHT22;6504;53.766;9.626;2024-03-08T20:27:15;3.30;99.90
12872;DHT22;6504;53.766;9.626;2024-03-08T20:29:44;3.30;99.90
12872;DHT22;6504;53.766;9.626;2024-03-08T20:32:12;3.30;99.90
12872;DHT22;6504;53.766;9.626;2024-03-08T20:34:40;3.30;99.90
12872;DHT22;6504;53.766;9.626;2024-03-08T20:37:09;3.30;99.90
12872;DHT22;6504;53.766;9.626;2024-03-08T20:39:37;3.20;99.90
12872;DHT22;6504;53.766;9.626;2024-03-08T20:42:06;3.20;99.90
12872;DHT22;6504;53.766;9.626;2024-03-08T20:44:34;3.20;99.90
12872;DHT22;6504;53.766;9.626;2024-03-08T20:47:03;3.20;99.90
12872;DHT22;6504;53.766;9.626;2024-03-08T20:49:33;3.20;99.90
12872;DHT22;6504;53.766;9.626;2024-03-08T20:52:01;3.20;99.90
12872;DHT22;6504;53.766;9.626;2024-03-08T20:54:29;3.20;99.90
12872;DHT22;6504;53.766;9.626;2024-03-08T20:56:57;3.20;99.90
12872;DHT22;6504;53.766;9.626;2024-03-08T20:59:27;3.20;99.90
12872;DHT22;6504;53.766;9.626;2024-03-08T21:01:55;3.30;99.90
12872;DHT22;6504;53.766;9.626;2024-03-08T21:04:23;3.30;99.90
12872;DHT22;6504;53.766;9.626;2024-03-08T21:06:53;3.30;99.90
12872;DHT22;6504;53.766;9.626;2024-03-08T21:09:21;3.30;99.90
12872;DHT22;6504;53.766;9.626;2024-03-08T21:11:49;3.30;99.90
12872;DHT22;6504;53.766;9.626;2024-03-08T21:14:18;3.20;99.90
12872;DHT22;6504;53.766;9.626;2024-03-08T21:16:47;3.20;99.90
12872;DHT22;6504;53.766;9.626;2024-03-08T21:19:15;3.20;99.90
12872;DHT22;6504;53.766;9.626;2024-03-08T21:21:43;3.20;99.90
12872;DHT22;6504;53.766;9.626;2024-03-08T21:24:11;3.20;99.90
12872;DHT22;6504;53.766;9.626;2024-03-08T21:26:39;3.20;99.90
12872;DHT22;6504;53.766;9.626;2024-03-08T21:29:07;3.20;99.90
12872;DHT22;6504;53.766;9.626;2024-03-08T21:31:35;3.10;99.90
12872;DHT22;6504;53.766;9.626;2024-03-08T21:34:05;3.10;99.90
12872;DHT22;6504;53.766;9.626;2024-03-08T21:36:33;3.10;99.90
12872;DHT22;6504;53.766;9.626;2024-03-08T21:39:01;3.10;99.90
12872;DHT22;6504;53.766;9.626;2024-03-08T21:41:30;3.10;99.90
12872;DHT22;6504;53.766;9.626;2024-03-08T21:43:59;3.10;99.90
12872;DHT22;6504;53.766;9.626;2024-03-08T21:46:28;3.10;99.90
12872;DHT22;6504;53.766;9.626;2024-03-08T21:48:56;3.10;99.90
12872;DHT22;6504;53.766;9.626;2024-03-08T21:51:25;3.00;99.90
12872;DHT22;6504;53.766;9.626;2024-03-08T21:53:55;3.00;99.90
12872;DHT22;6504;53.766;9.626;2024-03-08T21:56:24;3.00;99.90
12872;DHT22;6504;53.766;9.626;2024-03-08T21:58:58;2.90;99.90
12872;DHT22;6504;53.766;9.626;2024-03-08T22:01:38;2.90;99.90
12872;DHT22;6504;53.766;9.626;2024-03-08T22:04:12;2.80;99.90
12872;DHT22;6504;53.766;9.626;2024-03-08T22:06:47;2.80;99.90
12872;DHT22;6504;53.766;9.626;2024-03-08T22:09:21;2.80;99.90
12872;DHT22;6504;53.766;9.626;2024-03-08T22:11:59;2.70;99.90
12872;DHT22;6504;53.766;9.626;2024-03-08T22:14:36;2.70;99.90
12872;DHT22;6504;53.766;9.626;2024-03-08T22:17:09;2.70;99.90
12872;DHT22;6504;53.766;9.626;2024-03-08T22:19:50;2.70;99.90
12872;DHT22;6504;53.766;9.626;2024-03-08T22:22:24;2.70;99.90
12872;DHT22;6504;53.766;9.626;2024-03-08T22:24:55;2.70;99.90
12872;DHT22;6504;53.766;9.626;2024-03-08T22:27:31;2.70;99.90
12872;DHT22;6504;53.766;9.626;2024-03-08T22:30:03;2.70;99.90
12872;DHT22;6504;53.766;9.626;2024-03-08T22:32:36;2.70;99.90
12872;DHT22;6504;53.766;9.626;2024-03-08T22:35:12;2.70;99.90
12872;DHT22;6504;53.766;9.626;2024-03-08T22:37:53;2.60;99.90
12872;DHT22;6504;53.766;9.626;2024-03-08T22:40:28;2.70;99.90
12872;DHT22;6504;53.766;9.626;2024-03-08T22:43:01;2.60;99.90
12872;DHT22;6504;53.766;9.626;2024-03-08T22:45:31;2.60;99.90
12872;DHT22;6504;53.766;9.626;2024-03-08T22:48:00;2.60;99.90
12872;DHT22;6504;53.766;9.626;2024-03-08T22:50:34;2.60;99.90
12872;DHT22;6504;53.766;9.626;2024-03-08T22:53:07;2.60;99.90
12872;DHT22;6504;53.766;9.626;2024-03-08T22:55:43;2.60;99.90
12872;DHT22;6504;53.766;9.626;2024-03-08T22:58:17;2.60;99.90
12872;DHT22;6504;53.766;9.626;2024-03-08T23:00:49;2.60;99.90
12872;DHT22;6504;53.766;9.626;2024-03-08T23:03:30;2.60;99.90
12872;DHT22;6504;53.766;9.626;2024-03-08T23:06:04;2.60;99.90
12872;DHT22;6504;53.766;9.626;2024-03-08T23:08:47;2.50;99.90
12872;DHT22;6504;53.766;9.626;2024-03-08T23:11:23;2.50;99.90
12872;DHT22;6504;53.766;9.626;2024-03-08T23:13:53;2.50;99.90
12872;DHT22;6504;53.766;9.626;2024-03-08T23:16:23;2.50;99.90
12872;DHT22;6504;53.766;9.626;2024-03-08T23:18:54;2.50;99.90
12872;DHT22;6504;53.766;9.626;2024-03-08T23:21:25;2.50;99.90
12872;DHT22;6504;53.766;9.626;2024-03-08T23:24:04;2.40;99.90
12872;DHT22;6504;53.766;9.626;2024-03-08T23:26:34;2.40;99.90
12872;DHT22;6504;53.766;9.626;2024-03-08T23:29:06;2.40;99.90
12872;DHT22;6504;53.766;9.626;2024-03-08T23:31:35;2.40;99.90
12872;DHT22;6504;53.766;9.626;2024-03-08T23:34:06;2.40;99.90
12872;DHT22;6504;53.766;9.626;2024-03-08T23:36:56;2.40;99.90
12872;DHT22;6504;53.766;9.626;2024-03-08T23:39:47;2.40;99.90
12872;DHT22;6504;53.766;9.626;2024-03-08T23:42:23;2.40;99.90
12872;DHT22;6504;53.766;9.626;2024-03-08T23:45:08;2.40;99.90
12872;DHT22;6504;53.766;9.626;2024-03-08T23:47:41;2.40;99.90
12872;DHT22;6504;53.766;9.626;2024-03-08T23:50:18;2.40;99.90
12872;DHT22;6504;53.766;9.626;2024-03-08T23:53:01;2.40;99.90
12872;DHT22;6504;53.766;9.626;2024-03-08T23:55:49;2.40;99.90
12872;DHT22;6504;53.766;9.626;2024-03-08T23:58:19;2.40;99.90
